sensor_id;sensor_type;location;lat;lon;timestamp;pressure;altitude;pressure_sealevel;temperature;humidity
77086;BME280;66014;53.134;18.006;2023-06-26T00:00:54;101064.86;;;20.44;49.53
77086;BME280;66014;53.134;18.006;2023-06-26T00:03:40;101067.39;;;20.39;49.65
77086;BME280;66014;53.134;18.006;2023-06-26T00:06:07;101067.19;;;20.35;49.80
77086;BME280;66014;53.134;18.006;2023-06-26T00:08:33;101070.92;;;20.31;49.73
77086;BME280;66014;53.134;18.006;2023-06-26T00:11:00;101070.13;;;20.28;49.88
77086;BME280;66014;53.134;18.006;2023-06-26T00:13:28;101072.30;;;20.24;50.07
77086;BME280;66014;53.134;18.006;2023-06-26T00:15:56;101069.98;;;20.20;50.13
77086;BME280;66014;53.134;18.006;2023-06-26T00:18:26;101071.55;;;20.19;50.22
77086;BME280;66014;53.134;18.006;2023-06-26T00:21:02;101070.61;;;20.16;50.40
77086;BME280;66014;53.134;18.006;2023-06-26T00:23:29;101070.11;;;20.13;50.31
77086;BME280;66014;53.134;18.006;2023-06-26T00:26:09;101070.77;;;20.12;50.55
77086;BME280;66014;53.134;18.006;2023-06-26T00:32:06;101067.88;;;20.04;50.96
77086;BME280;66014;53.134;18.006;2023-06-26T00:34:33;101070.51;;;20.01;51.08
77086;BME280;66014;53.134;18.006;2023-06-26T00:37:00;101066.38;;;19.99;51.13
77086;BME280;66014;53.134;18.006;2023-06-26T00:39:27;101063.02;;;19.96;51.43
77086;BME280;66014;53.134;18.006;2023-06-26T00:41:53;101059.42;;;19.93;51.45
77086;BME280;66014;53.134;18.006;2023-06-26T00:44:22;101062.06;;;19.91;51.55
77086;BME280;66014;53.134;18.006;2023-06-26T00:46:48;101060.92;;;19.89;51.66
77086;BME280;66014;53.134;18.006;2023-06-26T00:49:15;101061.86;;;19.88;51.87
77086;BME280;66014;53.134;18.006;2023-06-26T00:51:42;101062.60;;;19.85;51.80
77086;BME280;66014;53.134;18.006;2023-06-26T00:54:09;101058.56;;;19.82;51.94
77086;BME280;66014;53.134;18.006;2023-06-26T00:56:36;101058.55;;;19.77;51.94
77086;BME280;66014;53.134;18.006;2023-06-26T00:59:06;101056.05;;;19.72;52.23
77086;BME280;66014;53.134;18.006;2023-06-26T01:01:33;101056.05;;;19.68;52.35
77086;BME280;66014;53.134;18.006;2023-06-26T01:04:00;101054.98;;;19.65;52.54
77086;BME280;66014;53.134;18.006;2023-06-26T01:06:29;101055.67;;;19.61;52.49
77086;BME280;66014;53.134;18.006;2023-06-26T01:09:03;101055.80;;;19.58;52.81
77086;BME280;66014;53.134;18.006;2023-06-26T01:11:30;101053.78;;;19.53;52.85
77086;BME280;66014;53.134;18.006;2023-06-26T01:14:02;101054.83;;;19.49;52.93
77086;BME280;66014;53.134;18.006;2023-06-26T01:16:29;101055.08;;;19.45;53.06
77086;BME280;66014;53.134;18.006;2023-06-26T01:18:58;101047.58;;;19.41;53.14
77086;BME280;66014;53.134;18.006;2023-06-26T01:21:28;101048.79;;;19.36;53.40
77086;BME280;66014;53.134;18.006;2023-06-26T01:24:12;101048.52;;;19.34;53.36
77086;BME280;66014;53.134;18.006;2023-06-26T01:26:58;101043.93;;;19.31;53.43
77086;BME280;66014;53.134;18.006;2023-06-26T01:29:31;101044.44;;;19.28;53.43
77086;BME280;66014;53.134;18.006;2023-06-26T01:31:59;101041.86;;;19.22;53.51
77086;BME280;66014;53.134;18.006;2023-06-26T01:34:27;101037.30;;;19.16;53.77
77086;BME280;66014;53.134;18.006;2023-06-26T01:36:53;101034.32;;;19.11;53.71
77086;BME280;66014;53.134;18.006;2023-06-26T01:39:20;101032.36;;;19.07;53.89
77086;BME280;66014;53.134;18.006;2023-06-26T01:41:46;101029.52;;;19.01;54.17
77086;BME280;66014;53.134;18.006;2023-06-26T01:44:22;101028.77;;;18.96;54.17
77086;BME280;66014;53.134;18.006;2023-06-26T01:47:01;101024.64;;;18.90;54.47
77086;BME280;66014;53.134;18.006;2023-06-26T01:55:36;101018.30;;;18.72;54.75
77086;BME280;66014;53.134;18.006;2023-06-26T01:58:06;101015.40;;;18.66;55.02
77086;BME280;66014;53.134;18.006;2023-06-26T02:00:35;101014.77;;;18.62;55.21
77086;BME280;66014;53.134;18.006;2023-06-26T02:03:03;101013.89;;;18.58;55.34
77086;BME280;66014;53.134;18.006;2023-06-26T02:05:32;101016.25;;;18.54;55.54
77086;BME280;66014;53.134;18.006;2023-06-26T02:07:59;101016.49;;;18.50;55.49
77086;BME280;66014;53.134;18.006;2023-06-26T02:10:28;101013.87;;;18.46;55.40
77086;BME280;66014;53.134;18.006;2023-06-26T02:12:56;101014.64;;;18.43;55.54
77086;BME280;66014;53.134;18.006;2023-06-26T02:15:25;101015.40;;;18.40;55.73
77086;BME280;66014;53.134;18.006;2023-06-26T02:17:51;101014.77;;;18.37;55.94
77086;BME280;66014;53.134;18.006;2023-06-26T02:20:18;101017.15;;;18.35;55.99
77086;BME280;66014;53.134;18.006;2023-06-26T02:22:44;101014.25;;;18.31;56.01
77086;BME280;66014;53.134;18.006;2023-06-26T02:25:11;101012.06;;;18.28;56.17
77086;BME280;66014;53.134;18.006;2023-06-26T02:27:43;101012.84;;;18.23;56.44
77086;BME280;66014;53.134;18.006;2023-06-26T02:30:10;101014.94;;;18.20;56.38
77086;BME280;66014;53.134;18.006;2023-06-26T02:32:37;101012.05;;;18.18;56.55
77086;BME280;66014;53.134;18.006;2023-06-26T02:35:04;101014.47;;;18.16;56.62
77086;BME280;66014;53.134;18.006;2023-06-26T02:37:32;101017.09;;;18.14;56.66
77086;BME280;66014;53.134;18.006;2023-06-26T02:40:01;101019.64;;;18.12;56.73
77086;BME280;66014;53.134;18.006;2023-06-26T02:42:27;101019.80;;;18.11;56.67
77086;BME280;66014;53.134;18.006;2023-06-26T02:44:54;101016.99;;;18.11;56.80
77086;BME280;66014;53.134;18.006;2023-06-26T02:47:20;101018.98;;;18.11;56.80
77086;BME280;66014;53.134;18.006;2023-06-26T02:49:47;101022.14;;;18.10;56.82
77086;BME280;66014;53.134;18.006;2023-06-26T02:52:13;101020.53;;;18.09;56.83
77086;BME280;66014;53.134;18.006;2023-06-26T02:54:40;101023.04;;;18.07;56.93
77086;BME280;66014;53.134;18.006;2023-06-26T02:57:06;101022.50;;;18.05;56.95
77086;BME280;66014;53.134;18.006;2023-06-26T02:59:34;101026.88;;;18.03;56.91
77086;BME280;66014;53.134;18.006;2023-06-26T03:02:00;101025.52;;;18.00;57.09
77086;BME280;66014;53.134;18.006;2023-06-26T03:04:27;101023.34;;;17.97;57.03
77086;BME280;66014;53.134;18.006;2023-06-26T03:06:54;101017.02;;;17.94;57.05
77086;BME280;66014;53.134;18.006;2023-06-26T03:09:20;101018.55;;;17.93;57.03
77086;BME280;66014;53.134;18.006;2023-06-26T03:11:47;101015.79;;;17.91;57.10
77086;BME280;66014;53.134;18.006;2023-06-26T03:14:14;101017.88;;;17.88;57.23
77086;BME280;66014;53.134;18.006;2023-06-26T03:16:41;101018.20;;;17.88;57.27
77086;BME280;66014;53.134;18.006;2023-06-26T03:19:08;101013.61;;;17.88;57.05
77086;BME280;66014;53.134;18.006;2023-06-26T03:21:34;101014.73;;;17.88;57.29
77086;BME280;66014;53.134;18.006;2023-06-26T03:24:01;101011.45;;;17.87;57.25
77086;BME280;66014;53.134;18.006;2023-06-26T03:26:28;101010.87;;;17.87;57.27
77086;BME280;66014;53.134;18.006;2023-06-26T03:28:55;101009.45;;;17.90;57.25
77086;BME280;66014;53.134;18.006;2023-06-26T03:31:22;101008.32;;;17.94;57.20
77086;BME280;66014;53.134;18.006;2023-06-26T03:33:51;101007.87;;;17.98;57.23
77086;BME280;66014;53.134;18.006;2023-06-26T03:36:17;101007.47;;;18.02;56.97
77086;BME280;66014;53.134;18.006;2023-06-26T03:38:44;101008.37;;;18.05;57.26
77086;BME280;66014;53.134;18.006;2023-06-26T03:41:10;101008.86;;;18.05;56.93
77086;BME280;66014;53.134;18.006;2023-06-26T03:43:37;101006.09;;;18.04;57.05
77086;BME280;66014;53.134;18.006;2023-06-26T03:46:03;101007.09;;;18.05;57.18
77086;BME280;66014;53.134;18.006;2023-06-26T03:48:30;101012.63;;;18.06;57.10
77086;BME280;66014;53.134;18.006;2023-06-26T03:50:56;101014.31;;;18.08;57.25
77086;BME280;66014;53.134;18.006;2023-06-26T03:53:23;101009.65;;;18.11;57.35
77086;BME280;66014;53.134;18.006;2023-06-26T03:55:50;101007.98;;;18.11;57.40
77086;BME280;66014;53.134;18.006;2023-06-26T03:58:17;101008.90;;;18.11;57.32
77086;BME280;66014;53.134;18.006;2023-06-26T04:00:43;101005.87;;;18.12;57.51
77086;BME280;66014;53.134;18.006;2023-06-26T04:03:10;101006.14;;;18.16;57.56
77086;BME280;66014;53.134;18.006;2023-06-26T04:05:37;101009.28;;;18.23;57.72
77086;BME280;66014;53.134;18.006;2023-06-26T04:08:04;101007.38;;;18.30;57.64
77086;BME280;66014;53.134;18.006;2023-06-26T04:10:30;101005.15;;;18.36;57.65
77086;BME280;66014;53.134;18.006;2023-06-26T04:12:56;101008.11;;;18.40;57.65
77086;BME280;66014;53.134;18.006;2023-06-26T04:15:23;101006.87;;;18.45;57.66
77086;BME280;66014;53.134;18.006;2023-06-26T04:17:49;101003.05;;;18.51;57.44
77086;BME280;66014;53.134;18.006;2023-06-26T04:20:17;101001.10;;;18.56;57.56
77086;BME280;66014;53.134;18.006;2023-06-26T04:22:43;101001.61;;;18.64;57.71
77086;BME280;66014;53.134;18.006;2023-06-26T04:25:12;101002.14;;;18.70;57.70
77086;BME280;66014;53.134;18.006;2023-06-26T04:27:39;101003.77;;;18.76;57.76
77086;BME280;66014;53.134;18.006;2023-06-26T04:30:06;101004.27;;;18.82;57.76
77086;BME280;66014;53.134;18.006;2023-06-26T04:32:33;101005.11;;;18.88;57.68
77086;BME280;66014;53.134;18.006;2023-06-26T04:34:59;101007.60;;;18.96;57.75
77086;BME280;66014;53.134;18.006;2023-06-26T04:37:26;101007.71;;;19.02;57.72
77086;BME280;66014;53.134;18.006;2023-06-26T04:39:52;101010.06;;;19.08;57.63
77086;BME280;66014;53.134;18.006;2023-06-26T04:42:19;101006.06;;;19.14;57.49
77086;BME280;66014;53.134;18.006;2023-06-26T04:44:48;101004.45;;;19.19;57.70
77086;BME280;66014;53.134;18.006;2023-06-26T04:47:14;101001.14;;;19.25;57.49
77086;BME280;66014;53.134;18.006;2023-06-26T04:49:41;101003.13;;;19.30;57.61
77086;BME280;66014;53.134;18.006;2023-06-26T04:52:13;101004.06;;;19.36;57.41
77086;BME280;66014;53.134;18.006;2023-06-26T04:54:40;101002.59;;;19.41;57.38
77086;BME280;66014;53.134;18.006;2023-06-26T04:57:07;101005.70;;;19.48;57.39
77086;BME280;66014;53.134;18.006;2023-06-26T04:59:35;101007.64;;;19.55;57.52
77086;BME280;66014;53.134;18.006;2023-06-26T05:02:01;101005.77;;;19.61;57.35
77086;BME280;66014;53.134;18.006;2023-06-26T05:04:28;101007.77;;;19.68;57.09
77086;BME280;66014;53.134;18.006;2023-06-26T05:06:54;101008.74;;;19.76;57.18
77086;BME280;66014;53.134;18.006;2023-06-26T05:09:21;101003.65;;;19.83;57.09
77086;BME280;66014;53.134;18.006;2023-06-26T05:11:47;101000.63;;;19.91;57.21
77086;BME280;66014;53.134;18.006;2023-06-26T05:14:14;101008.96;;;19.99;56.98
77086;BME280;66014;53.134;18.006;2023-06-26T05:16:40;101003.59;;;20.07;56.93
77086;BME280;66014;53.134;18.006;2023-06-26T05:19:07;101006.80;;;20.13;56.59
77086;BME280;66014;53.134;18.006;2023-06-26T05:21:34;101004.84;;;20.19;56.80
77086;BME280;66014;53.134;18.006;2023-06-26T05:24:07;101000.44;;;20.24;56.46
77086;BME280;66014;53.134;18.006;2023-06-26T05:26:35;101001.65;;;20.29;56.46
77086;BME280;66014;53.134;18.006;2023-06-26T05:29:02;100995.77;;;20.32;56.41
77086;BME280;66014;53.134;18.006;2023-06-26T05:31:31;100995.90;;;20.32;56.27
77086;BME280;66014;53.134;18.006;2023-06-26T05:34:06;100994.46;;;20.33;56.38
77086;BME280;66014;53.134;18.006;2023-06-26T05:36:34;100991.42;;;20.38;56.38
77086;BME280;66014;53.134;18.006;2023-06-26T05:39:05;100988.33;;;20.43;56.23
77086;BME280;66014;53.134;18.006;2023-06-26T05:41:32;100985.31;;;20.48;56.32
77086;BME280;66014;53.134;18.006;2023-06-26T05:43:59;100985.42;;;20.55;56.12
77086;BME280;66014;53.134;18.006;2023-06-26T05:46:26;100986.36;;;20.62;55.93
77086;BME280;66014;53.134;18.006;2023-06-26T05:48:52;100983.08;;;20.70;56.14
77086;BME280;66014;53.134;18.006;2023-06-26T05:51:19;100982.38;;;20.79;55.87
77086;BME280;66014;53.134;18.006;2023-06-26T05:53:46;100981.75;;;20.89;55.78
77086;BME280;66014;53.134;18.006;2023-06-26T05:56:13;100981.64;;;20.98;55.74
77086;BME280;66014;53.134;18.006;2023-06-26T05:58:42;100977.85;;;21.02;55.64
77086;BME280;66014;53.134;18.006;2023-06-26T06:01:10;100972.53;;;21.11;55.46
77086;BME280;66014;53.134;18.006;2023-06-26T06:03:36;100974.73;;;21.23;55.24
77086;BME280;66014;53.134;18.006;2023-06-26T06:06:03;100972.73;;;21.41;55.01
77086;BME280;66014;53.134;18.006;2023-06-26T06:08:32;100975.48;;;21.66;54.58
77086;BME280;66014;53.134;18.006;2023-06-26T06:11:00;100974.80;;;21.92;54.09
77086;BME280;66014;53.134;18.006;2023-06-26T06:13:28;100977.92;;;22.26;53.55
77086;BME280;66014;53.134;18.006;2023-06-26T06:15:55;100975.40;;;22.70;52.97
77086;BME280;66014;53.134;18.006;2023-06-26T06:18:22;100979.65;;;23.43;51.95
77086;BME280;66014;53.134;18.006;2023-06-26T06:20:49;100977.83;;;24.73;50.25
77086;BME280;66014;53.134;18.006;2023-06-26T06:23:16;100974.80;;;26.01;48.24
77086;BME280;66014;53.134;18.006;2023-06-26T06:25:43;100974.52;;;27.17;46.53
77086;BME280;66014;53.134;18.006;2023-06-26T06:28:10;100975.33;;;28.22;44.66
77086;BME280;66014;53.134;18.006;2023-06-26T06:30:36;100970.42;;;29.17;43.40
77086;BME280;66014;53.134;18.006;2023-06-26T06:33:05;100966.27;;;30.18;41.92
77086;BME280;66014;53.134;18.006;2023-06-26T06:35:32;100969.77;;;31.22;40.15
77086;BME280;66014;53.134;18.006;2023-06-26T06:37:59;100965.28;;;32.18;38.68
77086;BME280;66014;53.134;18.006;2023-06-26T06:40:25;100965.55;;;33.06;36.91
77086;BME280;66014;53.134;18.006;2023-06-26T06:42:52;100967.74;;;33.90;35.61
77086;BME280;66014;53.134;18.006;2023-06-26T06:45:19;100966.20;;;34.61;33.96
77086;BME280;66014;53.134;18.006;2023-06-26T06:47:46;100966.35;;;35.30;32.83
77086;BME280;66014;53.134;18.006;2023-06-26T06:50:12;100962.56;;;35.95;31.33
77086;BME280;66014;53.134;18.006;2023-06-26T06:52:42;100964.75;;;36.52;30.11
77086;BME280;66014;53.134;18.006;2023-06-26T06:55:09;100962.06;;;37.09;28.88
77086;BME280;66014;53.134;18.006;2023-06-26T06:57:37;100960.16;;;37.56;27.80
77086;BME280;66014;53.134;18.006;2023-06-26T07:00:09;100961.41;;;38.01;26.94
77086;BME280;66014;53.134;18.006;2023-06-26T07:02:38;100957.66;;;38.47;26.26
77086;BME280;66014;53.134;18.006;2023-06-26T07:05:06;100958.41;;;38.91;25.47
77086;BME280;66014;53.134;18.006;2023-06-26T07:07:34;100959.13;;;39.38;24.54
77086;BME280;66014;53.134;18.006;2023-06-26T07:10:05;100958.23;;;39.87;24.26
77086;BME280;66014;53.134;18.006;2023-06-26T07:12:37;100956.09;;;40.44;23.18
77086;BME280;66014;53.134;18.006;2023-06-26T07:15:05;100955.69;;;40.98;22.68
77086;BME280;66014;53.134;18.006;2023-06-26T07:17:33;100959.27;;;41.45;22.30
77086;BME280;66014;53.134;18.006;2023-06-26T07:20:00;100956.06;;;41.88;21.77
77086;BME280;66014;53.134;18.006;2023-06-26T07:22:27;100956.54;;;42.29;20.86
77086;BME280;66014;53.134;18.006;2023-06-26T07:24:54;100949.71;;;42.69;20.31
77086;BME280;66014;53.134;18.006;2023-06-26T07:27:21;100951.65;;;43.05;19.81
77086;BME280;66014;53.134;18.006;2023-06-26T07:29:49;100953.57;;;43.43;19.27
77086;BME280;66014;53.134;18.006;2023-06-26T07:32:16;100948.41;;;43.75;18.82
77086;BME280;66014;53.134;18.006;2023-06-26T07:34:42;100954.34;;;44.03;18.53
77086;BME280;66014;53.134;18.006;2023-06-26T07:37:09;100949.01;;;44.36;18.05
77086;BME280;66014;53.134;18.006;2023-06-26T07:39:47;100950.30;;;44.65;17.78
77086;BME280;66014;53.134;18.006;2023-06-26T07:42:14;100948.42;;;44.91;17.44
77086;BME280;66014;53.134;18.006;2023-06-26T07:44:42;100945.29;;;45.10;17.01
77086;BME280;66014;53.134;18.006;2023-06-26T07:47:10;100942.97;;;45.04;16.91
77086;BME280;66014;53.134;18.006;2023-06-26T07:49:37;100939.81;;;45.16;16.92
77086;BME280;66014;53.134;18.006;2023-06-26T07:52:17;100933.95;;;45.41;16.42
77086;BME280;66014;53.134;18.006;2023-06-26T07:54:46;100934.13;;;45.69;16.17
77086;BME280;66014;53.134;18.006;2023-06-26T07:57:13;100933.94;;;46.00;15.86
77086;BME280;66014;53.134;18.006;2023-06-26T08:00:16;100930.16;;;46.35;16.00
77086;BME280;66014;53.134;18.006;2023-06-26T08:02:58;100931.05;;;46.72;15.64
77086;BME280;66014;53.134;18.006;2023-06-26T08:05:39;100929.41;;;47.16;14.95
77086;BME280;66014;53.134;18.006;2023-06-26T08:08:05;100925.95;;;47.42;14.55
77086;BME280;66014;53.134;18.006;2023-06-26T08:10:33;100927.34;;;47.67;14.21
77086;BME280;66014;53.134;18.006;2023-06-26T08:13:00;100922.48;;;47.62;14.24
77086;BME280;66014;53.134;18.006;2023-06-26T08:15:27;100919.69;;;47.61;14.01
77086;BME280;66014;53.134;18.006;2023-06-26T08:18:08;100917.08;;;47.84;14.14
77086;BME280;66014;53.134;18.006;2023-06-26T08:20:34;100914.80;;;48.34;14.17
77086;BME280;66014;53.134;18.006;2023-06-26T08:23:04;100913.23;;;48.79;13.57
77086;BME280;66014;53.134;18.006;2023-06-26T08:25:31;100905.10;;;49.19;13.31
77086;BME280;66014;53.134;18.006;2023-06-26T08:27:58;100908.69;;;49.48;12.94
77086;BME280;66014;53.134;18.006;2023-06-26T08:30:24;100909.11;;;49.67;12.73
77086;BME280;66014;53.134;18.006;2023-06-26T08:32:57;100901.13;;;49.77;12.58
77086;BME280;66014;53.134;18.006;2023-06-26T08:35:24;100904.15;;;49.80;12.35
77086;BME280;66014;53.134;18.006;2023-06-26T08:37:58;100901.73;;;49.56;12.35
77086;BME280;66014;53.134;18.006;2023-06-26T08:40:25;100895.84;;;49.22;12.55
77086;BME280;66014;53.134;18.006;2023-06-26T08:42:52;100896.23;;;49.27;12.42
77086;BME280;66014;53.134;18.006;2023-06-26T08:45:27;100891.38;;;49.09;12.41
77086;BME280;66014;53.134;18.006;2023-06-26T08:47:55;100894.06;;;48.99;12.49
77086;BME280;66014;53.134;18.006;2023-06-26T08:50:30;100894.73;;;48.80;12.56
77086;BME280;66014;53.134;18.006;2023-06-26T08:55:41;100892.70;;;48.94;12.99
77086;BME280;66014;53.134;18.006;2023-06-26T08:58:09;100890.67;;;49.30;12.51
77086;BME280;66014;53.134;18.006;2023-06-26T09:00:36;100890.48;;;49.22;12.21
77086;BME280;66014;53.134;18.006;2023-06-26T09:03:04;100884.97;;;49.10;12.19
77086;BME280;66014;53.134;18.006;2023-06-26T09:05:39;100886.27;;;49.23;11.81
77086;BME280;66014;53.134;18.006;2023-06-26T09:08:07;100887.06;;;48.88;11.61
77086;BME280;66014;53.134;18.006;2023-06-26T09:10:34;100882.48;;;48.35;12.00
77086;BME280;66014;53.134;18.006;2023-06-26T09:13:00;100881.99;;;48.26;11.70
77086;BME280;66014;53.134;18.006;2023-06-26T09:15:37;100880.21;;;47.84;10.83
77086;BME280;66014;53.134;18.006;2023-06-26T09:18:05;100870.72;;;46.74;11.54
77086;BME280;66014;53.134;18.006;2023-06-26T09:20:32;100866.67;;;46.57;11.94
77086;BME280;66014;53.134;18.006;2023-06-26T09:23:01;100868.01;;;46.43;11.83
77086;BME280;66014;53.134;18.006;2023-06-26T09:25:33;100867.96;;;46.48;11.81
77086;BME280;66014;53.134;18.006;2023-06-26T09:27:59;100865.98;;;46.45;11.78
77086;BME280;66014;53.134;18.006;2023-06-26T09:30:26;100861.67;;;46.57;11.79
77086;BME280;66014;53.134;18.006;2023-06-26T09:32:53;100856.27;;;46.60;11.47
77086;BME280;66014;53.134;18.006;2023-06-26T09:35:20;100851.14;;;46.57;11.53
77086;BME280;66014;53.134;18.006;2023-06-26T09:37:47;100846.40;;;47.02;11.49
77086;BME280;66014;53.134;18.006;2023-06-26T09:40:14;100847.98;;;47.57;11.18
77086;BME280;66014;53.134;18.006;2023-06-26T09:42:40;100849.05;;;48.21;11.22
77086;BME280;66014;53.134;18.006;2023-06-26T09:45:17;100844.77;;;48.32;10.77
77086;BME280;66014;53.134;18.006;2023-06-26T09:47:45;100846.73;;;48.47;10.80
77086;BME280;66014;53.134;18.006;2023-06-26T09:50:23;100846.09;;;48.46;10.64
77086;BME280;66014;53.134;18.006;2023-06-26T09:52:51;100840.02;;;48.21;10.74
77086;BME280;66014;53.134;18.006;2023-06-26T09:55:19;100839.86;;;48.70;11.05
77086;BME280;66014;53.134;18.006;2023-06-26T09:57:49;100841.74;;;49.51;10.70
77086;BME280;66014;53.134;18.006;2023-06-26T10:00:16;100835.47;;;50.32;10.24
77086;BME280;66014;53.134;18.006;2023-06-26T10:02:42;100832.10;;;50.97;9.63
77086;BME280;66014;53.134;18.006;2023-06-26T10:05:09;100830.65;;;51.30;9.27
77086;BME280;66014;53.134;18.006;2023-06-26T10:07:36;100825.67;;;51.50;8.88
77086;BME280;66014;53.134;18.006;2023-06-26T10:10:05;100827.27;;;51.75;8.88
77086;BME280;66014;53.134;18.006;2023-06-26T10:12:32;100828.64;;;52.14;8.49
77086;BME280;66014;53.134;18.006;2023-06-26T10:15:02;100829.98;;;52.37;7.93
77086;BME280;66014;53.134;18.006;2023-06-26T10:17:34;100828.41;;;52.22;8.13
77086;BME280;66014;53.134;18.006;2023-06-26T10:20:02;100824.02;;;51.37;8.26
77086;BME280;66014;53.134;18.006;2023-06-26T10:22:40;100820.91;;;50.77;8.88
77086;BME280;66014;53.134;18.006;2023-06-26T10:25:09;100813.38;;;50.48;8.83
77086;BME280;66014;53.134;18.006;2023-06-26T10:27:42;100809.34;;;50.01;9.12
77086;BME280;66014;53.134;18.006;2023-06-26T10:30:16;100811.58;;;49.10;9.19
77086;BME280;66014;53.134;18.006;2023-06-26T10:32:45;100801.75;;;47.99;9.64
77086;BME280;66014;53.134;18.006;2023-06-26T10:35:14;100801.02;;;47.02;10.53
77086;BME280;66014;53.134;18.006;2023-06-26T10:37:45;100792.46;;;45.94;11.06
77086;BME280;66014;53.134;18.006;2023-06-26T10:40:13;100788.62;;;45.50;11.87
77086;BME280;66014;53.134;18.006;2023-06-26T10:42:40;100786.84;;;46.55;11.14
77086;BME280;66014;53.134;18.006;2023-06-26T10:45:28;100784.48;;;47.41;10.96
77086;BME280;66014;53.134;18.006;2023-06-26T10:47:57;100779.27;;;48.58;10.69
77086;BME280;66014;53.134;18.006;2023-06-26T10:50:28;100773.90;;;49.62;10.16
77086;BME280;66014;53.134;18.006;2023-06-26T10:55:58;100773.26;;;51.15;9.56
77086;BME280;66014;53.134;18.006;2023-06-26T11:01:17;100773.08;;;51.69;9.04
77086;BME280;66014;53.134;18.006;2023-06-26T11:03:46;100767.84;;;51.71;8.83
77086;BME280;66014;53.134;18.006;2023-06-26T11:06:20;100766.54;;;51.14;8.87
77086;BME280;66014;53.134;18.006;2023-06-26T11:14:26;100757.73;;;44.57;12.41
77086;BME280;66014;53.134;18.006;2023-06-26T11:16:56;100758.20;;;44.09;12.94
77086;BME280;66014;53.134;18.006;2023-06-26T11:19:27;100753.52;;;45.61;12.66
77086;BME280;66014;53.134;18.006;2023-06-26T11:22:01;100752.30;;;47.02;12.26
77086;BME280;66014;53.134;18.006;2023-06-26T11:24:29;100751.21;;;48.41;11.46
77086;BME280;66014;53.134;18.006;2023-06-26T11:27:00;100748.70;;;48.28;10.80
77086;BME280;66014;53.134;18.006;2023-06-26T11:29:29;100739.19;;;45.86;11.72
77086;BME280;66014;53.134;18.006;2023-06-26T11:32:00;100735.73;;;45.48;12.38
77086;BME280;66014;53.134;18.006;2023-06-26T11:34:29;100739.63;;;46.33;11.71
77086;BME280;66014;53.134;18.006;2023-06-26T11:36:57;100743.50;;;46.51;10.88
77086;BME280;66014;53.134;18.006;2023-06-26T11:39:23;100741.28;;;46.64;11.21
77086;BME280;66014;53.134;18.006;2023-06-26T11:41:50;100743.77;;;47.23;10.98
77086;BME280;66014;53.134;18.006;2023-06-26T11:44:16;100740.30;;;47.83;10.74
77086;BME280;66014;53.134;18.006;2023-06-26T11:46:47;100741.48;;;48.49;10.72
77086;BME280;66014;53.134;18.006;2023-06-26T11:49:17;100739.48;;;48.99;10.27
77086;BME280;66014;53.134;18.006;2023-06-26T11:51:46;100738.19;;;49.07;9.80
77086;BME280;66014;53.134;18.006;2023-06-26T11:54:12;100733.53;;;48.43;9.79
77086;BME280;66014;53.134;18.006;2023-06-26T11:56:40;100734.05;;;47.91;9.79
77086;BME280;66014;53.134;18.006;2023-06-26T11:59:10;100730.08;;;47.17;10.30
77086;BME280;66014;53.134;18.006;2023-06-26T12:01:39;100725.49;;;46.94;11.23
77086;BME280;66014;53.134;18.006;2023-06-26T12:04:08;100720.42;;;45.86;11.52
77086;BME280;66014;53.134;18.006;2023-06-26T12:06:41;100717.86;;;46.55;11.21
77086;BME280;66014;53.134;18.006;2023-06-26T12:09:10;100715.94;;;47.06;10.78
77086;BME280;66014;53.134;18.006;2023-06-26T12:11:41;100717.00;;;47.37;10.76
77086;BME280;66014;53.134;18.006;2023-06-26T12:14:09;100708.90;;;47.28;10.90
77086;BME280;66014;53.134;18.006;2023-06-26T12:16:37;100710.38;;;47.62;10.82
77086;BME280;66014;53.134;18.006;2023-06-26T12:19:07;100707.91;;;47.92;10.44
77086;BME280;66014;53.134;18.006;2023-06-26T12:24:04;100707.27;;;48.21;10.46
77086;BME280;66014;53.134;18.006;2023-06-26T12:26:31;100704.44;;;48.31;10.34
77086;BME280;66014;53.134;18.006;2023-06-26T12:29:04;100699.55;;;48.24;10.44
77086;BME280;66014;53.134;18.006;2023-06-26T12:31:32;100696.77;;;48.11;10.18
77086;BME280;66014;53.134;18.006;2023-06-26T12:34:00;100693.06;;;47.92;10.38
77086;BME280;66014;53.134;18.006;2023-06-26T12:36:27;100692.55;;;47.33;10.69
77086;BME280;66014;53.134;18.006;2023-06-26T12:38:54;100687.17;;;46.57;10.99
77086;BME280;66014;53.134;18.006;2023-06-26T12:41:24;100681.70;;;45.67;11.31
77086;BME280;66014;53.134;18.006;2023-06-26T12:43:55;100682.75;;;44.41;12.13
77086;BME280;66014;53.134;18.006;2023-06-26T12:46:35;100677.73;;;43.37;13.11
77086;BME280;66014;53.134;18.006;2023-06-26T12:49:01;100671.44;;;42.47;13.63
77086;BME280;66014;53.134;18.006;2023-06-26T12:51:29;100662.31;;;41.71;14.17
77086;BME280;66014;53.134;18.006;2023-06-26T12:53:56;100657.52;;;41.28;14.79
77086;BME280;66014;53.134;18.006;2023-06-26T12:56:22;100660.18;;;40.64;14.73
77086;BME280;66014;53.134;18.006;2023-06-26T12:58:49;100658.79;;;39.93;15.11
77086;BME280;66014;53.134;18.006;2023-06-26T13:01:15;100661.42;;;39.22;15.82
77086;BME280;66014;53.134;18.006;2023-06-26T13:03:43;100650.91;;;38.53;16.35
77086;BME280;66014;53.134;18.006;2023-06-26T13:06:10;100648.77;;;38.01;16.87
77086;BME280;66014;53.134;18.006;2023-06-26T13:08:36;100648.78;;;37.29;17.21
77086;BME280;66014;53.134;18.006;2023-06-26T13:11:03;100643.34;;;36.66;17.83
77086;BME280;66014;53.134;18.006;2023-06-26T13:13:31;100643.66;;;36.12;18.29